Time;durP1;ratioP1;P1;durP2;ratioP2;P2;SDS_P1;SDS_P2;PMS_P1;PMS_P2;Temp;Humidity;BMP_temperature;BMP_pressure;BME280_temperature;BME280_humidity;BME280_pressure;Samples;Min_cycle;Max_cycle;Signal;HPM_P1;HPM_P2
2022/07/28 00:05:08;;;;;;;4.70;4.30;;;14.40;84.00;;;;;;2614100;54;20135;-74
2022/07/28 00:10:56;;;;;;;5.30;4.00;;;14.30;88.30;;;;;;2613792;54;20375;-74
2022/07/28 00:16:44;;;;;;;4.90;4.50;;;14.30;89.50;;;;;;2614785;39;20710;-75
2022/07/28 00:22:31;;;;;;;15.63;4.60;;;14.30;89.50;;;;;;2614290;54;20138;-74
2022/07/28 00:32:28;;;;;;;5.17;4.77;;;14.20;91.30;;;;;;2614370;54;20422;-74
2022/07/28 00:38:16;;;;;;;4.67;4.37;;;14.10;93.10;;;;;;2612907;54;20335;-74
2022/07/28 00:44:06;;;;;;;5.30;4.47;;;14.10;94.20;;;;;;2613132;54;20596;-74
2022/07/28 00:49:54;;;;;;;4.37;3.83;;;14.10;96.70;;;;;;2614290;54;20408;-73
2022/07/28 00:55:42;;;;;;;5.10;4.43;;;14.00;97.40;;;;;;2614288;54;20388;-74
2022/07/28 01:01:30;;;;;;;5.00;4.07;;;14.00;97.10;;;;;;2614118;54;20413;-75
2022/07/28 01:07:27;;;;;;;4.53;4.23;;;13.90;99.00;;;;;;2613789;54;20162;-75
2022/07/28 01:26:22;;;;;;;4.87;4.47;;;13.80;99.90;;;;;;2614994;54;21244;-74
2022/07/28 01:32:20;;;;;;;4.10;3.70;;;13.80;99.90;;;;;;2613558;54;20387;-74
2022/07/28 01:38:10;;;;;;;8.77;4.53;;;13.70;99.90;;;;;;2612595;54;20361;-73
2022/07/28 01:44:03;;;;;;;6.00;4.30;;;13.60;99.90;;;;;;2614296;54;20929;-74
2022/07/28 01:49:52;;;;;;;4.70;4.40;;;13.60;99.90;;;;;;2613371;54;20399;-75
2022/07/28 01:55:42;;;;;;;15.03;4.83;;;13.50;99.90;;;;;;2613359;54;20555;-74
2022/07/28 02:01:35;;;;;;;5.03;4.73;;;13.40;99.90;;;;;;2611207;54;20399;-76
2022/07/28 02:07:25;;;;;;;4.77;4.30;;;13.30;99.90;;;;;;2612239;39;20748;-74
2022/07/28 02:13:12;;;;;;;10.13;5.67;;;13.20;99.90;;;;;;2614174;54;20423;-74
2022/07/28 02:19:02;;;;;;;6.67;6.03;;;13.10;99.90;;;;;;2615750;54;20142;-73
2022/07/28 02:24:51;;;;;;;7.00;4.93;;;13.00;99.90;;;;;;2615859;54;20908;-73
2022/07/28 02:41:52;;;;;;;5.57;5.07;;;12.80;99.90;;;;;;2612846;54;20429;-78
2022/07/28 02:47:45;;;;;;;8.40;4.90;;;12.60;99.90;;;;;;2612827;54;20991;-75
2022/07/28 02:53:34;;;;;;;8.67;7.07;;;12.50;99.90;;;;;;2612399;39;20783;-75
2022/07/28 02:59:22;;;;;;;9.70;5.50;;;12.50;99.90;;;;;;2612540;54;20399;-74
2022/07/28 03:05:11;;;;;;;7.67;4.97;;;12.50;99.90;;;;;;2611926;39;20798;-74
2022/07/28 03:11:09;;;;;;;17.17;5.67;;;12.30;99.90;;;;;;2613269;54;20427;-76
2022/07/28 03:16:57;;;;;;;5.97;5.40;;;12.30;99.90;;;;;;2614364;54;20436;-73
2022/07/28 03:22:44;;;;;;;7.20;5.17;;;12.10;99.90;;;;;;2613765;54;20640;-74
2022/07/28 03:38:55;;;;;;;9.27;5.47;;;12.10;99.90;;;;;;2612836;54;20415;-75
2022/07/28 03:44:44;;;;;;;17.53;6.00;;;12.00;99.90;;;;;;2613915;54;20411;-75
2022/07/28 03:50:32;;;;;;;14.40;5.90;;;12.00;99.90;;;;;;2613012;54;20483;-73
2022/07/28 03:56:19;;;;;;;8.40;5.47;;;12.00;99.90;;;;;;2613380;54;20483;-75
2022/07/28 04:02:06;;;;;;;6.50;6.00;;;11.90;99.90;;;;;;2611755;54;20310;-75
2022/07/28 04:07:53;;;;;;;6.60;6.00;;;12.00;99.90;;;;;;2611344;54;20257;-74
2022/07/28 04:13:41;;;;;;;6.70;6.10;;;12.10;99.90;;;;;;2614149;54;20168;-74
2022/07/28 04:19:29;;;;;;;6.60;5.97;;;12.20;99.90;;;;;;2613981;54;20126;-74
2022/07/28 04:25:18;;;;;;;6.57;5.93;;;12.20;99.90;;;;;;2614029;54;20238;-74
2022/07/28 04:31:43;;;;;;;6.47;5.60;;;12.40;99.90;;;;;;2614405;54;20426;-74
2022/07/28 04:34:30;;;;;;;7.37;5.53;;;12.50;99.90;;;;;;2613431;54;20402;-74
2022/07/28 04:40:18;;;;;;;8.97;5.83;;;12.60;99.90;;;;;;2612580;54;20526;-76
2022/07/28 04:46:06;;;;;;;6.20;5.63;;;12.70;99.90;;;;;;2614593;54;20157;-76
2022/07/28 04:51:54;;;;;;;10.60;6.10;;;12.90;99.90;;;;;;2612937;54;20146;-75
2022/07/28 04:57:42;;;;;;;8.10;5.77;;;13.10;99.90;;;;;;2614360;54;20134;-76
2022/07/28 05:03:29;;;;;;;7.23;5.83;;;13.10;99.90;;;;;;2614315;54;20505;-75
2022/07/28 05:09:17;;;;;;;5.90;5.40;;;13.20;99.90;;;;;;2613884;54;20130;-76
2022/07/28 05:15:06;;;;;;;10.67;5.20;;;13.40;99.90;;;;;;2613127;54;20391;-76
2022/07/28 05:20:54;;;;;;;9.07;5.30;;;13.90;99.90;;;;;;2613851;39;20920;-76
2022/07/28 05:26:42;;;;;;;6.30;5.50;;;14.60;99.90;;;;;;2612953;54;20147;-75
2022/07/28 05:29:58;;;;;;;5.70;5.07;;;15.00;99.90;;;;;;2612623;54;20929;-75
2022/07/28 05:32:24;;;;;;;5.90;4.30;;;15.40;99.90;;;;;;2613158;47;20186;-76
2022/07/28 05:38:12;;;;;;;6.10;4.60;;;15.70;98.40;;;;;;2614031;54;20238;-76
2022/07/28 05:44:00;;;;;;;8.53;5.13;;;15.40;99.90;;;;;;2615186;54;20123;-76
2022/07/28 05:49:47;;;;;;;9.57;5.50;;;16.00;96.10;;;;;;2614770;54;20134;-76
2022/07/28 05:55:35;;;;;;;6.83;5.60;;;16.40;84.20;;;;;;2615324;54;20662;-76
2022/07/28 06:01:23;;;;;;;8.50;5.60;;;16.70;79.90;;;;;;2613207;39;20533;-76
2022/07/28 06:07:10;;;;;;;5.23;4.83;;;16.30;84.50;;;;;;2612247;46;20169;-75
2022/07/28 06:12:58;;;;;;;6.20;4.73;;;16.30;84.90;;;;;;2610654;54;20132;-74
2022/07/28 06:18:49;;;;;;;5.77;4.97;;;16.90;75.00;;;;;;2612017;54;20246;-75
2022/07/28 06:24:36;;;;;;;6.77;5.57;;;18.10;50.80;;;;;;2614623;39;20857;-75
2022/07/28 06:34:30;;;;;;;5.10;4.60;;;17.90;45.30;;;;;;2612668;54;20414;-74
2022/07/28 06:40:19;;;;;;;9.73;5.30;;;18.80;35.90;;;;;;2615736;54;20397;-76
2022/07/28 06:46:07;;;;;;;8.40;5.50;;;18.60;31.00;;;;;;2611261;54;20434;-76
2022/07/28 06:51:54;;;;;;;8.67;5.70;;;18.30;37.60;;;;;;2611713;54;20154;-76
2022/07/28 06:57:42;;;;;;;7.53;5.50;;;18.70;33.80;;;;;;2613488;54;20947;-77
2022/07/28 07:03:30;;;;;;;5.77;5.27;;;19.70;24.00;;;;;;2611700;54;20436;-76
2022/07/28 07:09:18;;;;;;;6.03;5.20;;;19.90;20.30;;;;;;2615177;39;20552;-76
2022/07/28 07:15:06;;;;;;;5.83;4.97;;;19.70;21.70;;;;;;2612798;54;20141;-76
2022/07/28 07:20:56;;;;;;;6.53;5.93;;;20.00;19.00;;;;;;2613209;46;20398;-77
2022/07/28 07:26:44;;;;;;;9.27;7.10;;;19.00;22.00;;;;;;2614825;54;20405;-76
2022/07/28 07:32:42;;;;;;;8.17;5.53;;;18.40;28.20;;;;;;2610578;47;20158;-76
2022/07/28 07:38:30;;;;;;;7.23;5.33;;;19.10;23.20;;;;;;2611037;54;20695;-76
2022/07/28 07:44:17;;;;;;;9.17;5.50;;;20.40;17.60;;;;;;2612043;54;21791;-76
2022/07/28 07:50:04;;;;;;;6.80;5.80;;;20.50;16.30;;;;;;2613521;54;20141;-77
2022/07/28 07:55:52;;;;;;;5.97;5.43;;;19.30;17.00;;;;;;2610719;54;20390;-76
2022/07/28 08:01:39;;;;;;;6.40;5.90;;;19.10;23.80;;;;;;2611936;54;20669;-76
2022/07/28 08:07:26;;;;;;;6.50;5.90;;;18.90;27.00;;;;;;2611618;54;20187;-77
2022/07/28 08:13:14;;;;;;;7.43;6.10;;;20.70;18.30;;;;;;2614845;54;20123;-76
2022/07/28 08:19:03;;;;;;;6.50;5.87;;;21.60;12.60;;;;;;2613473;54;20166;-76
2022/07/28 08:24:51;;;;;;;10.70;5.60;;;21.90;8.60;;;;;;2613939;54;20472;-77
2022/07/28 08:34:32;;;;;;;7.13;6.43;;;21.70;6.40;;;;;;2612931;54;20358;-76
2022/07/28 08:40:20;;;;;;;6.67;6.30;;;22.20;5.10;;;;;;2613845;54;20432;-77
2022/07/28 08:46:08;;;;;;;6.60;6.20;;;22.70;2.80;;;;;;2613649;54;20391;-77
2022/07/28 08:51:59;;;;;;;6.60;6.20;;;21.70;4.10;;;;;;2613888;54;20395;-76
2022/07/28 08:57:48;;;;;;;7.77;6.80;;;21.50;5.00;;;;;;2614280;54;20395;-77
2022/07/28 09:03:37;;;;;;;6.63;6.00;;;22.80;2.20;;;;;;2614207;54;20399;-77
2022/07/28 09:09:26;;;;;;;7.37;6.57;;;22.60;2.30;;;;;;2615021;54;20383;-76
2022/07/28 09:15:13;;;;;;;6.50;5.87;;;21.90;2.80;;;;;;2615159;54;20410;-76
2022/07/28 09:21:01;;;;;;;6.87;6.37;;;23.20;1.10;;;;;;2614790;54;20133;-77
2022/07/28 09:27:02;;;;;;;7.77;7.07;;;22.80;1.00;;;;;;2615216;54;20155;-76
2022/07/28 09:30:01;;;;;;;7.73;6.33;;;22.80;1.40;;;;;;2614445;39;21425;-77
2022/07/28 09:32:27;;;;;;;11.80;7.10;;;23.70;1.00;;;;;;2612236;54;20439;-77
2022/07/28 09:38:16;;;;;;;7.50;6.83;;;24.20;1.00;;;;;;2614965;54;20175;-78
2022/07/28 09:50:42;;;;;;;7.00;6.50;;;24.80;1.00;;;;;;2614157;39;20922;-75
2022/07/28 09:56:31;;;;;;;7.40;6.70;;;24.30;1.00;;;;;;2612582;54;20406;-76
2022/07/28 10:02:23;;;;;;;8.73;6.37;;;25.20;1.00;;;;;;2616156;54;20411;-76
2022/07/28 10:08:11;;;;;;;7.40;6.80;;;24.50;1.00;;;;;;2616506;54;20376;-76
2022/07/28 10:14:04;;;;;;;7.10;6.13;;;25.00;1.00;;;;;;2616678;39;20543;-76
2022/07/28 10:19:53;;;;;;;7.33;6.63;;;24.50;1.00;;;;;;2615950;54;20964;-76
2022/07/28 10:25:43;;;;;;;5.97;5.57;;;25.80;1.00;;;;;;2615475;54;20379;-76
2022/07/28 10:35:04;;;;;;;7.43;6.03;;;25.00;1.00;;;;;;2613961;54;20371;-75
2022/07/28 10:40:57;;;;;;;6.00;5.50;;;25.30;1.00;;;;;;2615643;54;21029;-76
2022/07/28 10:46:45;;;;;;;6.43;5.87;;;25.70;1.00;;;;;;2616328;54;20927;-76
2022/07/28 10:52:35;;;;;;;6.83;6.27;;;26.00;1.00;;;;;;2614270;54;20589;-75
2022/07/28 11:05:03;;;;;;;6.27;5.87;;;25.90;1.00;;;;;;2615810;54;21285;-76
2022/07/28 11:10:53;;;;;;;6.70;6.30;;;25.70;1.00;;;;;;2614471;54;21043;-75
2022/07/28 11:16:41;;;;;;;6.33;5.83;;;25.90;1.00;;;;;;2614604;54;21426;-75
2022/07/28 11:22:29;;;;;;;5.93;5.53;;;26.40;1.00;;;;;;2613484;54;20137;-75
2022/07/28 11:28:17;;;;;;;6.20;5.70;;;26.10;1.00;;;;;;2616072;54;20407;-76
2022/07/28 11:34:05;;;;;;;11.97;6.00;;;26.70;1.00;;;;;;2612901;54;20394;-75
2022/07/28 11:39:53;;;;;;;8.67;6.37;;;27.10;1.00;;;;;;2614503;39;20769;-75
2022/07/28 11:45:41;;;;;;;8.23;6.10;;;26.60;1.00;;;;;;2615621;54;20121;-76
2022/07/28 11:51:30;;;;;;;7.87;6.03;;;26.70;1.00;;;;;;2615607;39;20537;-76
2022/07/28 11:57:19;;;;;;;6.30;5.87;;;27.90;1.00;;;;;;2612768;54;20393;-76
2022/07/28 12:03:06;;;;;;;7.20;6.03;;;27.60;1.00;;;;;;2611653;54;20481;-75
2022/07/28 12:09:01;;;;;;;6.33;5.83;;;27.10;1.00;;;;;;2613639;54;20697;-75
2022/07/28 12:14:49;;;;;;;6.53;6.13;;;27.10;1.00;;;;;;2615083;54;20412;-75
2022/07/28 12:26:50;;;;;;;6.00;5.50;;;27.50;1.00;;;;;;2615186;54;20584;-75
2022/07/28 12:32:38;;;;;;;6.80;6.30;;;27.20;1.00;;;;;;2614389;54;20225;-74
2022/07/28 12:38:27;;;;;;;6.63;5.60;;;27.50;1.00;;;;;;2610943;54;20159;-75
2022/07/28 12:44:15;;;;;;;7.73;5.90;;;26.30;1.00;;;;;;2614807;54;20398;-75
2022/07/28 12:50:14;;;;;;;7.00;6.20;;;25.00;1.00;;;;;;2614682;46;20266;-74
2022/07/28 12:56:02;;;;;;;13.03;5.80;;;26.10;1.00;;;;;;2613499;54;20393;-74
2022/07/28 13:01:53;;;;;;;6.83;6.30;;;26.20;1.00;;;;;;2614360;54;20418;-76
2022/07/28 13:07:40;;;;;;;6.30;5.90;;;28.40;1.00;;;;;;2614190;39;20791;-75
2022/07/28 13:13:28;;;;;;;6.37;5.87;;;28.90;1.00;;;;;;2614440;54;21025;-75
2022/07/28 13:19:21;;;;;;;6.50;6.10;;;28.30;1.00;;;;;;2614081;54;20223;-75
2022/07/28 13:25:09;;;;;;;9.30;5.33;;;27.70;1.00;;;;;;2614100;54;20544;-74
2022/07/28 13:34:54;;;;;;;7.10;6.13;;;28.10;1.00;;;;;;2614219;54;20405;-75
2022/07/28 13:40:41;;;;;;;6.53;5.93;;;28.50;1.00;;;;;;2613996;54;20622;-75
2022/07/28 13:46:29;;;;;;;5.77;5.40;;;29.10;1.00;;;;;;2613376;54;20136;-75
2022/07/28 13:52:18;;;;;;;5.90;5.50;;;28.30;1.00;;;;;;2611274;54;20144;-75
2022/07/28 13:58:06;;;;;;;5.93;5.53;;;26.80;1.00;;;;;;2614033;54;20390;-75
2022/07/28 14:03:54;;;;;;;6.77;6.07;;;26.50;1.00;;;;;;2613772;54;20242;-75
2022/07/28 14:09:42;;;;;;;7.83;5.90;;;26.50;1.00;;;;;;2611616;54;20173;-75
2022/07/28 14:15:29;;;;;;;7.17;6.60;;;26.80;1.00;;;;;;2611861;54;20125;-75
2022/07/28 14:21:17;;;;;;;6.93;6.50;;;27.30;1.00;;;;;;2610841;54;20257;-76
2022/07/28 14:27:05;;;;;;;7.17;6.47;;;27.30;1.00;;;;;;2614603;54;20134;-75
2022/07/28 14:30:20;;;;;;;7.80;6.83;;;27.80;1.00;;;;;;2614321;54;20945;-75
2022/07/28 14:32:45;;;;;;;6.13;5.63;;;27.30;1.00;;;;;;2612802;39;20549;-76
2022/07/28 14:38:33;;;;;;;7.30;6.67;;;27.20;1.00;;;;;;2614798;54;20263;-75
2022/07/28 14:44:21;;;;;;;6.57;5.97;;;28.20;1.00;;;;;;2613850;54;20125;-76
2022/07/28 14:50:09;;;;;;;6.67;6.17;;;27.90;1.00;;;;;;2613032;54;20666;-76
2022/07/28 14:55:57;;;;;;;7.00;6.13;;;26.90;1.00;;;;;;2614525;54;20525;-74
2022/07/28 15:01:46;;;;;;;6.43;5.80;;;27.80;1.00;;;;;;2613786;54;20137;-75
2022/07/28 15:07:34;;;;;;;6.40;5.83;;;27.40;1.00;;;;;;2613720;54;21504;-74
2022/07/28 15:13:22;;;;;;;6.27;5.77;;;26.50;1.00;;;;;;2612707;46;20421;-75
2022/07/28 15:19:09;;;;;;;6.53;6.03;;;26.70;1.00;;;;;;2612713;54;20391;-75
2022/07/28 15:24:57;;;;;;;6.73;6.13;;;26.60;1.00;;;;;;2611887;54;20133;-79
2022/07/28 15:40:58;;;;;;;5.80;5.43;;;27.70;1.00;;;;;;2611503;54;21541;-74
2022/07/28 15:46:46;;;;;;;6.70;5.40;;;28.10;1.00;;;;;;2612725;54;20518;-75
2022/07/28 15:49:30;;;;;;;6.13;5.63;;;28.30;1.00;;;;;;2609937;54;20434;-75
2022/07/28 15:51:55;;;;;;;6.30;5.80;;;27.10;1.00;;;;;;2611543;54;20171;-75
2022/07/28 15:57:42;;;;;;;8.37;6.50;;;26.90;1.00;;;;;;2612508;54;20840;-74
2022/07/28 16:03:29;;;;;;;6.10;5.70;;;26.80;1.00;;;;;;2613528;54;20227;-75
2022/07/28 16:09:17;;;;;;;6.63;6.13;;;26.40;1.00;;;;;;2610163;54;20150;-74
2022/07/28 16:15:04;;;;;;;6.90;6.40;;;25.70;1.00;;;;;;2614157;54;20927;-75
2022/07/28 16:20:52;;;;;;;8.90;5.90;;;25.10;1.00;;;;;;2614610;54;20374;-75
2022/07/28 16:26:40;;;;;;;6.30;5.80;;;24.90;1.00;;;;;;2613612;39;20544;-74
2022/07/28 16:32:27;;;;;;;6.10;5.80;;;24.80;1.00;;;;;;2613684;39;20801;-75
2022/07/28 16:38:15;;;;;;;6.53;6.03;;;24.60;1.00;;;;;;2612254;54;20298;-74
2022/07/28 16:44:03;;;;;;;6.60;5.93;;;24.30;1.00;;;;;;2612234;54;20165;-74
2022/07/28 16:55:41;;;;;;;6.23;5.73;;;24.30;1.00;;;;;;2618203;54;20371;-77
2022/07/28 17:01:28;;;;;;;7.10;6.70;;;24.30;1.00;;;;;;2618339;54;20393;-78
2022/07/28 17:07:17;;;;;;;6.80;6.00;;;24.10;1.00;;;;;;2618758;54;20139;-79
2022/07/28 17:10:20;;;;;;;6.97;6.30;;;24.00;1.00;;;;;;2617173;47;20986;-80
2022/07/28 17:12:46;;;;;;;7.10;6.60;;;23.90;1.00;;;;;;2617153;54;20401;-78
2022/07/28 17:18:33;;;;;;;10.20;6.00;;;24.00;1.00;;;;;;2616775;54;20218;-78
2022/07/28 17:24:21;;;;;;;7.30;5.80;;;24.00;1.00;;;;;;2616699;54;20520;-78
2022/07/28 17:33:30;;;;;;;6.83;6.40;;;23.80;1.00;;;;;;2616898;54;20380;-77
2022/07/28 17:39:17;;;;;;;7.33;6.93;;;23.60;1.00;;;;;;2617821;54;20361;-78
2022/07/28 17:45:05;;;;;;;6.97;6.40;;;23.50;1.00;;;;;;2617759;54;20142;-78
2022/07/28 18:01:02;;;;;;;6.83;6.27;;;23.20;1.00;;;;;;2619229;54;20371;-77
2022/07/28 18:06:50;;;;;;;9.13;7.30;;;23.10;1.00;;;;;;2619043;54;20363;-78
2022/07/28 18:12:38;;;;;;;8.17;7.60;;;23.00;1.00;;;;;;2619100;54;20131;-77
2022/07/28 18:18:25;;;;;;;7.50;7.10;;;22.80;1.00;;;;;;2619397;54;20140;-78
2022/07/28 18:24:13;;;;;;;7.00;6.50;;;22.70;1.00;;;;;;2619216;54;20635;-78
2022/07/28 18:30:01;;;;;;;8.80;6.27;;;22.60;1.00;;;;;;2619066;54;20174;-78
2022/07/28 18:35:50;;;;;;;6.30;5.80;;;22.50;1.00;;;;;;2618820;54;20386;-79
2022/07/28 18:41:37;;;;;;;6.87;6.00;;;22.40;1.00;;;;;;2619088;54;20363;-78
2022/07/28 18:47:26;;;;;;;6.07;5.27;;;22.30;1.00;;;;;;2617414;54;20142;-78
2022/07/28 18:50:30;;;;;;;6.77;6.00;;;22.30;1.00;;;;;;2617358;46;20405;-79
2022/07/28 18:52:56;;;;;;;6.50;5.30;;;22.30;1.00;;;;;;2617056;54;20404;-79
2022/07/28 18:58:43;;;;;;;8.33;5.70;;;22.20;1.00;;;;;;2617494;54;20141;-78
2022/07/28 19:07:52;;;;;;;5.53;5.23;;;22.00;1.00;;;;;;2617366;39;21468;-79
2022/07/28 19:13:40;;;;;;;6.50;6.00;;;21.90;1.00;;;;;;2617385;54;20715;-78
2022/07/28 19:19:27;;;;;;;6.80;6.27;;;21.80;1.00;;;;;;2617081;54;20685;-78
2022/07/28 19:28:35;;;;;;;6.00;5.50;;;21.60;1.00;;;;;;2617202;54;20428;-79
2022/07/28 19:34:23;;;;;;;6.70;6.20;;;21.50;1.00;;;;;;2617483;54;20178;-79
2022/07/28 19:40:10;;;;;;;7.00;6.40;;;21.50;1.00;;;;;;2617312;39;20550;-80
2022/07/28 19:45:58;;;;;;;6.50;5.70;;;21.30;1.00;;;;;;2618013;54;20380;-79
2022/07/28 20:02:06;;;;;;;5.90;5.30;;;21.30;1.00;;;;;;2617056;54;20411;-79
2022/07/28 20:11:37;;;;;;;6.60;5.97;;;21.20;1.00;;;;;;2617275;54;20385;-80
2022/07/28 20:17:24;;;;;;;5.73;5.33;;;21.10;1.00;;;;;;2616764;54;20407;-80
2022/07/28 20:23:13;;;;;;;6.70;6.20;;;21.00;1.00;;;;;;2617339;54;20157;-80
2022/07/28 20:29:01;;;;;;;5.67;5.30;;;20.90;1.00;;;;;;2617511;54;20493;-79
2022/07/28 20:34:50;;;;;;;5.87;5.30;;;20.90;1.00;;;;;;2617388;54;20126;-79
2022/07/28 20:40:37;;;;;;;5.70;5.30;;;20.80;1.00;;;;;;2617465;54;20415;-78
2022/07/28 20:46:25;;;;;;;6.20;5.60;;;20.90;1.00;;;;;;2616855;54;20164;-79
2022/07/28 20:55:34;;;;;;;6.27;5.50;;;20.70;1.10;;;;;;2617459;54;21006;-79
2022/07/28 21:01:22;;;;;;;7.13;5.20;;;20.70;1.00;;;;;;2616832;54;20217;-79
2022/07/28 21:07:09;;;;;;;6.90;6.20;;;20.60;1.20;;;;;;2617258;39;20805;-80
2022/07/28 21:12:56;;;;;;;6.83;5.70;;;20.60;1.40;;;;;;2617186;54;20135;-78
2022/07/28 21:18:44;;;;;;;8.87;5.40;;;20.60;1.10;;;;;;2616828;54;20154;-78
2022/07/28 21:24:31;;;;;;;7.27;5.70;;;20.60;1.00;;;;;;2617313;54;20154;-79
2022/07/28 21:30:18;;;;;;;5.40;5.10;;;20.50;1.00;;;;;;2617054;54;20228;-78
2022/07/28 21:36:08;;;;;;;8.27;5.80;;;20.50;1.00;;;;;;2618123;54;20149;-79
2022/07/28 21:41:56;;;;;;;7.40;5.70;;;20.50;1.00;;;;;;2618422;54;20391;-78
2022/07/28 21:47:44;;;;;;;6.93;6.33;;;20.40;1.00;;;;;;2618492;54;20122;-79
2022/07/28 21:57:09;;;;;;;6.13;5.53;;;20.20;1.00;;;;;;2617966;54;20411;-78
2022/07/28 22:02:56;;;;;;;7.47;5.57;;;20.20;1.00;;;;;;2617041;54;20383;-79
2022/07/28 22:08:43;;;;;;;5.80;5.50;;;20.10;1.00;;;;;;2617193;54;20125;-80
2022/07/28 22:14:31;;;;;;;6.30;5.87;;;20.00;1.00;;;;;;2616864;54;20163;-80
2022/07/28 22:20:18;;;;;;;5.80;5.30;;;20.00;1.10;;;;;;2616904;54;20416;-79
2022/07/28 22:26:05;;;;;;;5.67;5.07;;;19.80;1.50;;;;;;2618086;39;20595;-78
2022/07/28 22:31:52;;;;;;;8.73;5.83;;;19.80;1.60;;;;;;2617980;54;20135;-80
2022/07/28 22:37:39;;;;;;;6.23;5.83;;;19.80;2.20;;;;;;2617961;54;20404;-79
2022/07/28 22:43:26;;;;;;;6.90;6.30;;;19.70;2.50;;;;;;2618566;46;20145;-79
2022/07/28 22:49:13;;;;;;;6.37;5.80;;;19.60;2.60;;;;;;2617635;54;20123;-78
2022/07/28 22:55:14;;;;;;;7.50;5.53;;;19.60;2.80;;;;;;2618101;46;20141;-79
2022/07/28 22:57:55;;;;;;;11.70;5.33;;;19.60;2.60;;;;;;2617746;46;20515;-79
2022/07/28 23:03:42;;;;;;;6.80;6.40;;;19.50;3.40;;;;;;2618132;39;20755;-80
2022/07/28 23:09:29;;;;;;;6.13;5.63;;;19.50;3.40;;;;;;2617579;54;20179;-80
2022/07/28 23:12:32;;;;;;;7.33;6.63;;;19.40;3.30;;;;;;2617705;47;20422;-81
2022/07/28 23:14:58;;;;;;;6.13;5.63;;;19.40;3.30;;;;;;2617842;54;20146;-80
2022/07/28 23:20:45;;;;;;;7.17;6.00;;;19.40;3.30;;;;;;2617651;54;20403;-79
2022/07/28 23:26:32;;;;;;;6.17;5.67;;;19.40;3.90;;;;;;2617500;54;20151;-80
2022/07/28 23:32:20;;;;;;;6.63;6.17;;;19.40;4.20;;;;;;2617296;39;21322;-78
2022/07/28 23:38:08;;;;;;;6.00;5.60;;;19.30;4.20;;;;;;2617089;54;20202;-80
2022/07/28 23:43:55;;;;;;;8.23;6.10;;;19.20;4.70;;;;;;2617553;54;20392;-80
2022/07/28 23:49:42;;;;;;;7.83;5.90;;;19.20;5.50;;;;;;2617720;54;20126;-80
2022/07/28 23:52:28;;;;;;;5.87;5.37;;;19.10;5.50;;;;;;2618026;39;21118;-80
2022/07/28 23:54:55;;;;;;;9.60;5.87;;;19.10;5.90;;;;;;2617912;39;20943;-79
